Time;durP1;ratioP1;P1;durP2;ratioP2;P2;SDS_P1;SDS_P2;PMS_P1;PMS_P2;Temp;Humidity;BMP_temperature;BMP_pressure;BME280_temperature;BME280_humidity;BME280_pressure;Samples;Min_cycle;Max_cycle;Signal;HPM_P1;HPM_P2
2021/05/11 00:02:27;;;;;;;3.13;1.67;;;19.30;75.40;;;;;;5106741;27;20551;-67
2021/05/11 00:04:54;;;;;;;3.47;1.40;;;19.30;74.60;;;;;;5106050;27;20032;-68
2021/05/11 00:07:24;;;;;;;3.65;1.77;;;19.30;74.00;;;;;;5104577;28;20031;-65
2021/05/11 00:09:54;;;;;;;3.33;1.55;;;19.20;75.60;;;;;;5107035;27;20052;-68
2021/05/11 00:12:22;;;;;;;2.92;1.58;;;19.30;75.20;;;;;;5106389;28;20028;-68
2021/05/11 00:14:49;;;;;;;4.47;1.48;;;19.40;74.30;;;;;;5103554;27;20423;-69
2021/05/11 00:17:16;;;;;;;3.53;1.98;;;19.50;74.40;;;;;;5104543;28;20051;-62
2021/05/11 00:19:43;;;;;;;3.67;1.70;;;19.60;74.00;;;;;;5109455;27;20016;-63
2021/05/11 00:22:11;;;;;;;3.40;1.45;;;19.80;74.60;;;;;;5104051;28;20027;-66
2021/05/11 00:24:38;;;;;;;3.45;2.03;;;20.00;73.60;;;;;;5104603;28;20042;-65
2021/05/11 00:27:05;;;;;;;2.90;2.03;;;20.10;73.20;;;;;;5106509;28;20059;-63
2021/05/11 00:29:33;;;;;;;4.30;1.50;;;20.10;74.00;;;;;;5104815;28;20020;-66
2021/05/11 00:32:00;;;;;;;5.38;2.15;;;20.10;73.90;;;;;;5105658;28;20710;-65
2021/05/11 00:34:30;;;;;;;3.78;2.38;;;20.20;73.20;;;;;;5108230;28;20458;-67
2021/05/11 00:37:00;;;;;;;7.78;3.25;;;20.20;72.20;;;;;;5106348;28;20024;-67
2021/05/11 00:39:30;;;;;;;3.75;3.05;;;20.20;72.00;;;;;;5106308;28;20024;-65
2021/05/11 00:42:01;;;;;;;9.35;7.70;;;20.20;72.60;;;;;;5104537;28;20023;-64
2021/05/11 00:44:29;;;;;;;4.50;2.88;;;20.20;72.20;;;;;;5103091;28;20027;-63
2021/05/11 00:46:59;;;;;;;3.72;1.85;;;20.30;71.00;;;;;;5105885;28;20027;-62
2021/05/11 00:49:31;;;;;;;2.63;2.00;;;20.40;70.20;;;;;;4752093;28;9999575;-64
2021/05/11 00:51:59;;;;;;;;;;;20.70;68.90;;;;;;5108148;28;20031;-63
2021/05/11 00:54:27;;;;;;;4.93;2.60;;;21.10;67.10;;;;;;5107987;28;20286;-62
2021/05/11 00:56:55;;;;;;;1.67;1.58;;;21.20;68.30;;;;;;5107060;28;20043;-66
2021/05/11 00:59:26;;;;;;;2.45;1.50;;;21.30;67.30;;;;;;5104188;28;20036;-62
2021/05/11 01:01:54;;;;;;;2.67;1.20;;;21.60;67.80;;;;;;5105442;28;20028;-64
2021/05/11 01:04:22;;;;;;;3.00;1.42;;;21.70;66.60;;;;;;5109994;28;20037;-64
2021/05/11 01:06:50;;;;;;;1.77;1.33;;;21.60;66.30;;;;;;5108585;28;20019;-64
2021/05/11 01:09:18;;;;;;;3.50;1.60;;;21.40;67.80;;;;;;5108536;28;20359;-69
2021/05/11 01:11:46;;;;;;;4.80;1.58;;;21.20;68.10;;;;;;5108270;28;20022;-69
2021/05/11 01:14:13;;;;;;;3.67;1.20;;;21.30;68.40;;;;;;5107440;28;20028;-64
2021/05/11 01:16:43;;;;;;;10.05;3.10;;;21.70;65.90;;;;;;5108032;28;20034;-64
2021/05/11 01:19:17;;;;;;;6.10;1.67;;;22.00;64.70;;;;;;5108804;28;20024;-70
2021/05/11 01:22:16;;;;;;;2.28;1.40;;;22.10;64.90;;;;;;5150571;22;20031;-66
2021/05/11 01:24:46;;;;;;;2.17;1.40;;;22.20;63.00;;;;;;5082291;28;20169;-67
2021/05/11 02:24:44;;;;;;;1.20;0.57;;;24.10;53.10;;;;;;5081158;28;20438;-70
2021/05/11 02:27:11;;;;;;;2.05;0.68;;;24.30;52.60;;;;;;5083574;28;20032;-64
2021/05/11 02:29:38;;;;;;;3.97;1.10;;;24.50;53.80;;;;;;5084543;28;20024;-65
2021/05/11 02:32:06;;;;;;;1.65;0.43;;;24.50;54.60;;;;;;5061446;28;20526;-69
2021/05/11 02:34:33;;;;;;;2.30;0.70;;;24.60;52.40;;;;;;5080831;28;20287;-65
2021/05/11 02:37:00;;;;;;;1.60;0.60;;;24.70;53.10;;;;;;5084513;28;20032;-63
2021/05/11 02:39:28;;;;;;;1.63;0.70;;;24.70;51.90;;;;;;5084223;28;20028;-67
2021/05/11 02:41:55;;;;;;;1.73;0.70;;;24.60;52.30;;;;;;5077771;28;20090;-68
2021/05/11 02:44:25;;;;;;;2.15;0.68;;;24.40;54.00;;;;;;5080736;28;20040;-63
2021/05/11 02:46:56;;;;;;;1.60;0.80;;;24.10;53.70;;;;;;5080401;28;20518;-65
2021/05/11 02:49:25;;;;;;;0.47;0.47;;;23.90;53.90;;;;;;5083453;28;20027;-64
2021/05/11 02:51:53;;;;;;;15.65;3.20;;;23.80;53.10;;;;;;5084114;28;20020;-68
2021/05/11 02:54:20;;;;;;;3.45;2.58;;;23.70;54.60;;;;;;5082763;28;20112;-64
2021/05/11 02:56:47;;;;;;;1.95;1.30;;;23.60;53.40;;;;;;5083372;28;20032;-68
2021/05/11 02:59:14;;;;;;;0.95;0.73;;;23.90;55.00;;;;;;5076831;28;20247;-65
2021/05/11 03:01:42;;;;;;;2.78;1.05;;;24.20;54.00;;;;;;5080623;28;20436;-63
2021/05/11 03:04:09;;;;;;;2.65;1.95;;;24.20;53.50;;;;;;5083901;28;20059;-67
2021/05/11 03:06:36;;;;;;;3.67;1.60;;;24.40;53.50;;;;;;5084296;28;20022;-65
2021/05/11 03:09:04;;;;;;;4.85;2.90;;;24.50;51.60;;;;;;5082872;28;20027;-65
2021/05/11 03:11:32;;;;;;;1.25;0.70;;;24.50;51.30;;;;;;5079694;28;20024;-68
2021/05/11 03:13:59;;;;;;;1.75;1.13;;;24.40;52.20;;;;;;5076242;28;20052;-65
2021/05/11 03:16:27;;;;;;;1.63;0.90;;;24.40;52.50;;;;;;5079452;28;20917;-65
2021/05/11 03:18:54;;;;;;;1.95;0.80;;;24.60;53.00;;;;;;5075165;28;20499;-67
2021/05/11 03:21:22;;;;;;;2.25;0.82;;;24.70;52.70;;;;;;5084300;28;20031;-62
2021/05/11 03:23:49;;;;;;;0.57;0.57;;;24.80;51.90;;;;;;5078514;28;20782;-64
2021/05/11 03:26:16;;;;;;;3.38;0.90;;;24.80;51.70;;;;;;5078130;28;20415;-69
2021/05/11 03:28:43;;;;;;;1.88;0.50;;;24.50;51.80;;;;;;5084251;28;20464;-65
2021/05/11 03:31:11;;;;;;;1.38;0.65;;;24.10;51.70;;;;;;5079899;28;20012;-69
2021/05/11 03:33:38;;;;;;;1.17;0.60;;;23.90;50.90;;;;;;5073565;28;20024;-63
2021/05/11 03:36:05;;;;;;;1.85;0.57;;;24.00;51.30;;;;;;5073399;28;20024;-69
2021/05/11 03:38:33;;;;;;;0.75;0.57;;;24.00;50.10;;;;;;5080676;28;20023;-66
2021/05/11 03:41:00;;;;;;;7.70;1.55;;;24.00;48.70;;;;;;5082658;28;20020;-70
2021/05/11 03:43:34;;;;;;;2.47;0.90;;;24.10;49.00;;;;;;5081210;28;20338;-63
2021/05/11 03:46:07;;;;;;;1.45;0.52;;;24.00;50.20;;;;;;5076594;28;20024;-67
2021/05/11 03:48:34;;;;;;;4.93;1.63;;;23.90;51.10;;;;;;5077414;28;20387;-65
2021/05/11 03:51:05;;;;;;;1.40;0.65;;;24.10;50.70;;;;;;5079926;28;20103;-63
2021/05/11 03:53:36;;;;;;;4.22;0.90;;;24.20;52.50;;;;;;5074106;28;20480;-62
2021/05/11 03:56:04;;;;;;;2.92;0.70;;;23.60;56.40;;;;;;5077138;28;20029;-66
2021/05/11 03:58:32;;;;;;;2.20;0.80;;;22.60;56.90;;;;;;5083767;28;20077;-63
2021/05/11 04:00:59;;;;;;;3.17;0.70;;;21.50;59.30;;;;;;5080903;28;20115;-70
2021/05/11 04:03:27;;;;;;;4.57;0.80;;;20.90;60.30;;;;;;5083455;28;20024;-68
2021/05/11 04:05:54;;;;;;;0.75;0.57;;;20.30;62.10;;;;;;5082759;28;20458;-63
2021/05/11 04:09:09;;;;;;;1.23;0.80;;;19.80;65.00;;;;;;5080523;28;20131;-64
2021/05/11 04:16:22;;;;;;;3.63;0.95;;;19.80;66.50;;;;;;5079956;28;20043;-62
2021/05/11 04:18:51;;;;;;;2.83;0.65;;;19.90;65.50;;;;;;5077794;28;20067;-69
2021/05/11 04:21:19;;;;;;;1.30;0.93;;;19.70;66.30;;;;;;5078664;28;20024;-70
2021/05/11 04:23:49;;;;;;;1.67;1.15;;;19.90;66.30;;;;;;5082844;28;20051;-67
2021/05/11 04:26:16;;;;;;;4.00;1.25;;;19.80;65.80;;;;;;5077581;28;20024;-69
2021/05/11 04:28:44;;;;;;;1.73;1.00;;;19.80;67.40;;;;;;5084877;28;20498;-68
2021/05/11 04:31:12;;;;;;;3.08;0.98;;;19.90;66.20;;;;;;5076571;28;20093;-67
2021/05/11 04:33:42;;;;;;;3.45;1.02;;;20.20;66.40;;;;;;5079545;28;20067;-69
2021/05/11 04:36:14;;;;;;;4.13;1.40;;;20.50;64.40;;;;;;5080661;28;20499;-64
2021/05/11 04:38:42;;;;;;;0.87;0.70;;;20.70;64.20;;;;;;5081091;28;20070;-69
2021/05/11 04:41:10;;;;;;;3.50;1.00;;;20.90;62.60;;;;;;5073902;28;20082;-68
2021/05/11 04:43:39;;;;;;;5.32;1.02;;;21.10;62.90;;;;;;5079540;28;20134;-67
2021/05/11 04:48:51;;;;;;;1.88;0.57;;;21.80;60.60;;;;;;5082547;28;20094;-68
2021/05/11 04:51:19;;;;;;;4.70;1.30;;;22.00;59.60;;;;;;5082806;28;20102;-69
2021/05/11 04:53:50;;;;;;;1.63;0.90;;;22.00;60.40;;;;;;5082819;28;20035;-69
2021/05/11 04:56:17;;;;;;;5.97;1.27;;;21.90;60.20;;;;;;5081938;28;20223;-69
2021/05/11 04:58:45;;;;;;;5.50;1.40;;;21.60;60.80;;;;;;5082409;28;20028;-64
2021/05/11 05:01:12;;;;;;;2.45;0.93;;;21.30;60.70;;;;;;5081834;28;20012;-63
2021/05/11 05:03:41;;;;;;;1.55;0.90;;;21.20;60.90;;;;;;5082571;28;20497;-64
2021/05/11 05:06:09;;;;;;;3.97;0.88;;;21.00;61.70;;;;;;5082793;28;20036;-64
2021/05/11 05:08:36;;;;;;;6.53;1.70;;;20.80;63.40;;;;;;5081598;28;20024;-67
2021/05/11 05:11:04;;;;;;;2.80;2.35;;;20.50;63.90;;;;;;5091529;28;20036;-67
2021/05/11 05:13:31;;;;;;;4.65;1.95;;;20.20;63.80;;;;;;5077665;28;20028;-64
2021/05/11 05:15:59;;;;;;;4.20;1.80;;;19.90;64.90;;;;;;5074857;28;20420;-62
2021/05/11 05:18:30;;;;;;;5.72;1.08;;;19.80;65.40;;;;;;5076267;28;20121;-69
2021/05/11 05:20:58;;;;;;;2.20;0.82;;;19.60;66.80;;;;;;5082465;28;20015;-69
2021/05/11 05:23:32;;;;;;;1.02;0.60;;;19.40;66.40;;;;;;5082067;28;20484;-69
2021/05/11 05:26:11;;;;;;;3.05;0.90;;;19.40;67.80;;;;;;5076887;28;20111;-62
2021/05/11 05:28:41;;;;;;;1.30;1.00;;;19.20;68.50;;;;;;5082633;28;20020;-68
2021/05/11 05:31:08;;;;;;;3.17;1.10;;;19.20;69.20;;;;;;5074820;28;20426;-64
2021/05/11 05:33:37;;;;;;;4.53;0.98;;;19.00;70.70;;;;;;5081827;28;20407;-62
2021/05/11 05:36:06;;;;;;;3.55;0.95;;;18.90;71.10;;;;;;5081908;28;20229;-62
2021/05/11 05:38:34;;;;;;;1.73;0.95;;;18.90;70.20;;;;;;5083486;28;20024;-62
2021/05/11 05:41:05;;;;;;;3.50;0.70;;;18.90;69.40;;;;;;5085602;28;20016;-69
2021/05/11 05:43:33;;;;;;;0.63;0.60;;;18.90;69.70;;;;;;5083459;28;20069;-62
2021/05/11 05:46:00;;;;;;;4.97;1.08;;;18.90;69.50;;;;;;5085361;28;20043;-64
2021/05/11 05:48:27;;;;;;;1.42;0.85;;;19.00;69.30;;;;;;5085498;28;20024;-68
2021/05/11 05:50:58;;;;;;;1.85;0.70;;;19.00;69.50;;;;;;5085361;28;20020;-69
2021/05/11 05:53:30;;;;;;;1.65;0.88;;;19.10;69.40;;;;;;5085563;28;20020;-65
2021/05/11 05:55:57;;;;;;;1.20;0.80;;;19.10;69.80;;;;;;5084946;28;20099;-65
2021/05/11 05:58:28;;;;;;;6.68;3.38;;;19.10;70.30;;;;;;5074299;28;20086;-68
2021/05/11 06:01:03;;;;;;;1.30;1.13;;;19.20;71.10;;;;;;5074848;28;20109;-69
2021/05/11 06:06:07;;;;;;;1.60;0.77;;;19.10;69.80;;;;;;5085791;28;20502;-63
2021/05/11 06:08:36;;;;;;;3.00;0.95;;;19.10;71.00;;;;;;5085540;28;20779;-64
2021/05/11 06:19:12;;;;;;;2.55;2.08;;;18.90;69.90;;;;;;5084081;28;20085;-61
2021/05/11 06:21:39;;;;;;;3.17;0.90;;;18.90;71.10;;;;;;5083230;28;20427;-61
2021/05/11 06:24:14;;;;;;;3.50;1.48;;;18.80;71.40;;;;;;5074201;28;20048;-68
2021/05/11 06:26:41;;;;;;;2.30;0.80;;;18.60;72.10;;;;;;5077160;28;20062;-69
2021/05/11 06:29:09;;;;;;;2.80;1.02;;;18.60;71.90;;;;;;5083488;28;20032;-71
2021/05/11 06:31:37;;;;;;;2.42;1.30;;;18.50;72.70;;;;;;5084919;28;20043;-63
2021/05/11 06:34:05;;;;;;;4.00;2.30;;;18.50;72.70;;;;;;5083339;28;20082;-63
2021/05/11 06:36:32;;;;;;;1.65;1.05;;;18.40;73.50;;;;;;5077595;28;20111;-70
2021/05/11 06:39:04;;;;;;;1.45;1.27;;;18.40;73.40;;;;;;5081191;28;20024;-70
2021/05/11 06:41:36;;;;;;;2.27;1.13;;;18.40;72.90;;;;;;5084098;28;20520;-69
2021/05/11 06:45:01;;;;;;;4.35;1.33;;;18.30;74.00;;;;;;5084226;28;20363;-62
2021/05/11 06:49:48;;;;;;;1.58;1.20;;;18.40;74.40;;;;;;5076592;28;20809;-65
2021/05/11 06:55:15;;;;;;;2.33;1.15;;;18.60;71.20;;;;;;5071553;28;20039;-70
2021/05/11 06:57:42;;;;;;;1.70;0.93;;;18.50;71.30;;;;;;5084703;28;20028;-64
2021/05/11 07:00:10;;;;;;;1.55;1.27;;;18.30;72.60;;;;;;5084245;28;20018;-65
2021/05/11 07:02:37;;;;;;;2.55;1.00;;;18.20;73.20;;;;;;5076897;28;20073;-72
2021/05/11 07:05:05;;;;;;;2.35;1.38;;;18.10;74.30;;;;;;5082788;28;20505;-64
2021/05/11 07:07:35;;;;;;;2.35;1.70;;;18.00;74.60;;;;;;5083533;28;20040;-65
2021/05/11 07:10:11;;;;;;;3.25;2.15;;;18.00;74.40;;;;;;5079602;28;20024;-74
2021/05/11 07:15:24;;;;;;;3.97;1.58;;;17.90;75.00;;;;;;5080435;28;20120;-69
2021/05/11 07:17:51;;;;;;;2.80;1.67;;;17.90;75.10;;;;;;5078946;28;20034;-70
2021/05/11 07:20:18;;;;;;;10.02;5.20;;;17.90;75.40;;;;;;5076767;28;20031;-70
2021/05/11 07:22:47;;;;;;;3.05;1.40;;;17.80;75.60;;;;;;5077805;28;20043;-64
2021/05/11 07:25:14;;;;;;;6.43;4.75;;;17.70;75.70;;;;;;5076278;28;20119;-68
2021/05/11 07:30:31;;;;;;;5.05;2.00;;;17.70;76.30;;;;;;5079136;28;20016;-63
2021/05/11 07:32:58;;;;;;;2.90;1.50;;;17.70;77.00;;;;;;5082056;28;20141;-68
2021/05/11 07:35:28;;;;;;;5.55;3.15;;;17.60;76.40;;;;;;5082619;28;20380;-63
2021/05/11 07:37:55;;;;;;;5.78;2.85;;;17.60;76.00;;;;;;5084262;28;20077;-62
2021/05/11 07:40:23;;;;;;;8.25;3.33;;;17.60;76.00;;;;;;5084522;28;20188;-70
2021/05/11 07:42:50;;;;;;;5.00;1.90;;;17.60;76.40;;;;;;5084930;28;20174;-70
2021/05/11 07:45:31;;;;;;;5.40;4.88;;;17.50;76.40;;;;;;5085419;28;20027;-64
2021/05/11 07:51:16;;;;;;;2.75;1.55;;;17.50;77.30;;;;;;5064749;28;20037;-69
2021/05/11 08:10:34;;;;;;;4.30;2.95;;;17.20;81.50;;;;;;5089990;28;20111;-70
2021/05/11 08:15:56;;;;;;;3.42;2.72;;;17.10;82.10;;;;;;5077964;28;20337;-65
2021/05/11 08:18:33;;;;;;;4.07;2.17;;;17.10;82.30;;;;;;5077450;28;20028;-65
2021/05/11 08:29:20;;;;;;;4.22;1.90;;;17.10;83.10;;;;;;5082766;28;20031;-69
2021/05/11 08:31:50;;;;;;;2.03;1.70;;;17.00;83.40;;;;;;5081344;28;20185;-66
2021/05/11 08:34:17;;;;;;;4.20;2.33;;;17.00;83.40;;;;;;5081565;28;20213;-70
2021/05/11 08:36:44;;;;;;;3.22;1.98;;;17.00;84.00;;;;;;5096998;28;20065;-69
2021/05/11 08:39:12;;;;;;;6.18;2.17;;;17.00;84.00;;;;;;5076187;28;20625;-69
2021/05/11 08:41:39;;;;;;;5.10;2.05;;;17.00;84.40;;;;;;5071652;28;20063;-71
2021/05/11 08:44:12;;;;;;;4.55;1.90;;;17.00;84.40;;;;;;5078497;28;20407;-64
2021/05/11 08:46:41;;;;;;;3.88;1.85;;;17.00;84.60;;;;;;5079882;28;20100;-70
2021/05/11 08:49:14;;;;;;;6.50;2.28;;;17.00;84.10;;;;;;5081157;28;20512;-64
2021/05/11 08:52:08;;;;;;;4.82;1.80;;;17.00;84.50;;;;;;5079852;28;20025;-70
2021/05/11 09:04:36;;;;;;;3.10;1.60;;;17.00;85.10;;;;;;5079956;28;20104;-69
2021/05/11 09:26:05;;;;;;;2.70;1.48;;;16.90;84.10;;;;;;5081521;28;20120;-69
2021/05/11 09:34:04;;;;;;;2.53;1.48;;;16.80;84.30;;;;;;5083176;28;20035;-64
2021/05/11 09:45:36;;;;;;;2.72;1.40;;;16.80;84.60;;;;;;5082534;28;20554;-74
2021/05/11 09:56:24;;;;;;;3.53;1.70;;;16.70;86.40;;;;;;5080878;28;20478;-64
2021/05/11 10:41:47;;;;;;;5.40;2.33;;;16.50;88.70;;;;;;5082006;28;20020;-74
2021/05/11 10:47:00;;;;;;;5.68;2.90;;;16.40;88.90;;;;;;5085509;28;20047;-71
2021/05/11 10:49:39;;;;;;;5.75;3.00;;;16.50;89.10;;;;;;5098462;28;20031;-67
2021/05/11 10:52:18;;;;;;;6.90;2.70;;;16.40;89.40;;;;;;5080201;28;20471;-64
2021/05/11 10:55:08;;;;;;;9.70;3.95;;;16.30;89.70;;;;;;5080936;28;20807;-66
2021/05/11 11:05:41;;;;;;;5.28;2.03;;;16.10;90.30;;;;;;5082837;28;20043;-65
2021/05/11 11:08:27;;;;;;;3.40;2.47;;;16.10;90.30;;;;;;5079396;28;20414;-66
2021/05/11 11:11:17;;;;;;;7.20;2.17;;;16.00;90.40;;;;;;5083978;28;20070;-72
2021/05/11 11:13:52;;;;;;;5.22;1.95;;;16.00;90.60;;;;;;5077251;28;20035;-74
2021/05/11 11:16:20;;;;;;;6.20;2.25;;;15.90;90.80;;;;;;5079114;28;20749;-69
2021/05/11 11:18:48;;;;;;;4.93;2.20;;;15.90;90.90;;;;;;5078120;28;20024;-71
2021/05/11 11:21:46;;;;;;;4.25;1.75;;;15.90;90.90;;;;;;5077350;28;20044;-73
2021/05/11 11:24:10;;;;;;;5.88;2.13;;;15.80;90.70;;;;;;5072402;28;20509;-62
2021/05/11 11:26:41;;;;;;;2.85;1.75;;;15.80;91.00;;;;;;5074920;28;20047;-64
2021/05/11 11:29:11;;;;;;;3.63;1.92;;;15.70;91.00;;;;;;5078914;28;20032;-67
2021/05/11 11:31:45;;;;;;;3.10;2.38;;;15.70;91.10;;;;;;5079479;28;20030;-69
2021/05/11 11:34:24;;;;;;;3.78;1.80;;;15.50;91.30;;;;;;5079613;28;20318;-64
2021/05/11 11:36:59;;;;;;;4.65;1.70;;;15.40;91.40;;;;;;5073077;28;20024;-64
2021/05/11 11:39:29;;;;;;;3.13;1.55;;;15.40;91.70;;;;;;5080152;28;20067;-64
2021/05/11 11:42:02;;;;;;;4.15;2.15;;;15.30;91.80;;;;;;5082442;28;20119;-62
2021/05/11 11:44:34;;;;;;;4.78;1.92;;;15.30;92.00;;;;;;5083714;28;20016;-71
2021/05/11 11:47:06;;;;;;;2.83;2.00;;;15.20;92.10;;;;;;5085821;28;20172;-70
2021/05/11 11:49:38;;;;;;;5.63;2.15;;;15.10;92.40;;;;;;5084352;28;20019;-69
2021/05/11 11:52:22;;;;;;;2.58;1.83;;;15.10;92.30;;;;;;5085072;28;20027;-70
2021/05/11 12:00:26;;;;;;;4.47;1.90;;;15.10;91.90;;;;;;5078157;28;20034;-65
2021/05/11 12:03:00;;;;;;;4.68;2.00;;;15.10;91.20;;;;;;5078143;28;20681;-71
2021/05/11 12:05:38;;;;;;;5.07;2.17;;;15.10;90.90;;;;;;5077195;28;20015;-61
2021/05/11 12:10:47;;;;;;;4.95;2.45;;;15.00;90.60;;;;;;5078610;28;20043;-74
2021/05/11 12:13:22;;;;;;;4.85;2.00;;;15.00;90.50;;;;;;5074791;28;20058;-73
2021/05/11 12:16:12;;;;;;;12.32;2.03;;;14.90;90.60;;;;;;5076715;28;20032;-70
2021/05/11 12:19:20;;;;;;;5.28;1.90;;;14.90;90.30;;;;;;5077604;28;20033;-64
2021/05/11 12:22:01;;;;;;;3.25;1.80;;;14.90;90.50;;;;;;5060713;28;20116;-65
2021/05/11 12:24:34;;;;;;;4.22;2.30;;;14.80;90.50;;;;;;5078921;28;20118;-69
2021/05/11 12:27:14;;;;;;;2.45;2.08;;;14.70;90.90;;;;;;5074559;28;20384;-63
2021/05/11 12:30:07;;;;;;;4.72;1.98;;;14.60;91.10;;;;;;5077701;28;20051;-63
2021/05/11 12:32:36;;;;;;;4.60;1.92;;;14.50;91.20;;;;;;5075982;28;20024;-68
2021/05/11 12:35:06;;;;;;;4.30;2.22;;;14.40;91.30;;;;;;5092979;28;20036;-66
2021/05/11 12:37:52;;;;;;;4.55;2.00;;;14.30;91.40;;;;;;5075412;28;20047;-65
2021/05/11 12:42:56;;;;;;;3.10;1.90;;;14.20;91.80;;;;;;5075269;28;20090;-62
2021/05/11 12:45:24;;;;;;;4.25;1.63;;;14.00;91.90;;;;;;5076087;28;20060;-68
2021/05/11 12:47:55;;;;;;;3.88;2.20;;;14.00;92.00;;;;;;5081379;28;20048;-68
2021/05/11 12:50:30;;;;;;;4.28;2.13;;;14.10;91.80;;;;;;5080252;28;20479;-67
2021/05/11 12:53:06;;;;;;;6.45;2.15;;;14.10;91.90;;;;;;5081258;28;20016;-62
2021/05/11 12:58:28;;;;;;;4.57;2.95;;;14.00;91.80;;;;;;5084208;28;20031;-67
2021/05/11 13:01:04;;;;;;;3.97;2.60;;;13.90;92.00;;;;;;5085713;28;20093;-68
2021/05/11 13:03:46;;;;;;;5.45;2.47;;;13.80;92.00;;;;;;5083241;28;20028;-64
2021/05/11 13:25:33;;;;;;;4.26;3.56;;;13.40;92.70;;;;;;4914124;28;10001113;-64
2021/05/11 13:35:17;;;;;;;3.78;1.58;;;13.50;92.00;;;;;;5068957;28;20028;-64
2021/05/11 13:37:44;;;;;;;3.35;1.67;;;13.40;91.90;;;;;;5070164;28;20024;-67
2021/05/11 13:40:12;;;;;;;3.17;1.60;;;13.40;92.10;;;;;;5069238;28;20073;-65
2021/05/11 13:42:39;;;;;;;3.05;1.50;;;13.40;92.10;;;;;;5069523;28;20030;-63
2021/05/11 13:45:08;;;;;;;3.47;1.73;;;13.40;91.60;;;;;;5069889;28;20313;-63
2021/05/11 13:47:35;;;;;;;2.97;1.80;;;13.50;91.40;;;;;;5070410;28;20048;-65
2021/05/11 13:50:04;;;;;;;4.57;1.80;;;13.50;92.00;;;;;;5069870;28;20040;-67
2021/05/11 13:52:33;;;;;;;5.18;1.85;;;13.40;91.90;;;;;;5070627;28;20532;-65
2021/05/11 13:55:19;;;;;;;2.72;1.77;;;13.50;91.60;;;;;;5071680;28;20027;-65
2021/05/11 14:03:16;;;;;;;5.07;1.92;;;13.80;90.40;;;;;;5069443;28;20123;-67
2021/05/11 14:05:43;;;;;;;5.95;2.15;;;13.90;90.00;;;;;;5066882;28;20428;-65
2021/05/11 14:08:11;;;;;;;4.03;2.00;;;13.90;89.70;;;;;;5068877;28;20020;-69
2021/05/11 14:10:40;;;;;;;4.30;1.80;;;13.90;89.50;;;;;;5069057;28;20031;-68
2021/05/11 14:13:07;;;;;;;3.80;1.40;;;13.90;89.40;;;;;;5069710;28;20099;-69
2021/05/11 14:15:35;;;;;;;5.30;1.60;;;13.90;89.40;;;;;;5068912;28;20403;-68
2021/05/11 14:18:03;;;;;;;2.42;1.30;;;13.90;89.40;;;;;;5058805;28;20044;-63
2021/05/11 14:20:30;;;;;;;2.20;1.35;;;13.90;90.20;;;;;;5069451;28;20016;-70
2021/05/11 14:22:58;;;;;;;2.88;1.60;;;13.90;89.30;;;;;;5068428;28;20067;-68
2021/05/11 14:25:25;;;;;;;3.30;1.60;;;13.90;89.60;;;;;;5068327;28;20502;-65
2021/05/11 14:27:52;;;;;;;2.60;1.55;;;14.00;89.90;;;;;;5067137;28;20012;-64
2021/05/11 14:30:20;;;;;;;5.55;1.40;;;14.00;90.00;;;;;;5066992;28;20419;-64
2021/05/11 14:32:47;;;;;;;2.63;1.45;;;14.00;90.00;;;;;;5068262;28;20061;-70
2021/05/11 14:35:15;;;;;;;4.55;1.30;;;14.10;89.90;;;;;;5068713;28;20082;-66
2021/05/11 14:37:42;;;;;;;2.53;1.45;;;14.10;89.90;;;;;;5069461;28;20040;-70
2021/05/11 14:40:10;;;;;;;4.13;1.88;;;14.20;89.00;;;;;;5068607;28;20054;-64
2021/05/11 14:42:38;;;;;;;4.95;1.80;;;14.20;88.90;;;;;;5066682;28;20433;-70
2021/05/11 14:45:06;;;;;;;4.82;1.83;;;14.20;88.70;;;;;;5068624;28;20107;-66
2021/05/11 14:47:33;;;;;;;5.32;1.45;;;14.10;88.80;;;;;;5069098;28;20650;-71
2021/05/11 14:50:01;;;;;;;2.75;2.05;;;14.20;88.50;;;;;;5068602;28;20012;-70
2021/05/11 14:52:28;;;;;;;3.58;2.00;;;14.20;88.30;;;;;;5068388;28;20094;-67
2021/05/11 14:54:55;;;;;;;5.57;2.05;;;14.20;88.20;;;;;;5068685;28;20067;-64
2021/05/11 14:57:23;;;;;;;3.15;1.60;;;14.20;88.80;;;;;;5068321;28;20031;-67
2021/05/11 14:59:50;;;;;;;5.45;1.92;;;14.20;88.50;;;;;;5068491;28;20533;-63
2021/05/11 15:02:17;;;;;;;3.95;1.70;;;14.20;88.40;;;;;;5068222;28;20110;-69
2021/05/11 15:04:44;;;;;;;2.45;1.60;;;14.20;88.40;;;;;;5067740;28;20511;-63
2021/05/11 15:07:12;;;;;;;2.15;1.63;;;14.20;89.20;;;;;;5067901;28;20016;-65
2021/05/11 15:09:39;;;;;;;3.45;1.73;;;14.20;88.90;;;;;;5067900;28;20035;-68
2021/05/11 15:12:07;;;;;;;3.63;1.75;;;14.20;88.70;;;;;;5067403;28;20111;-67
2021/05/11 15:14:34;;;;;;;7.93;1.70;;;14.20;88.90;;;;;;5068258;28;20047;-67
2021/05/11 15:17:58;;;;;;;4.63;1.48;;;14.20;89.60;;;;;;5068021;28;20493;-69
2021/05/11 15:19:58;;;;;;;4.93;1.52;;;14.20;88.00;;;;;;5067958;28;20367;-64
2021/05/11 15:22:26;;;;;;;3.03;1.20;;;14.20;88.50;;;;;;5068017;28;20416;-65
2021/05/11 15:24:54;;;;;;;2.55;1.50;;;14.20;87.50;;;;;;5068068;28;20025;-67
2021/05/11 15:27:22;;;;;;;2.97;1.48;;;14.30;86.80;;;;;;5065990;28;20452;-65
2021/05/11 15:29:49;;;;;;;1.85;1.52;;;14.20;87.20;;;;;;5068561;28;20554;-65
2021/05/11 15:32:39;;;;;;;6.43;1.30;;;14.20;86.60;;;;;;5065800;28;20025;-69
2021/05/11 15:35:09;;;;;;;2.13;1.33;;;14.20;86.70;;;;;;5068131;28;20025;-67
2021/05/11 15:37:37;;;;;;;2.78;1.40;;;14.10;86.80;;;;;;5067145;28;20691;-64
2021/05/11 15:40:07;;;;;;;3.85;1.40;;;14.20;86.30;;;;;;5067592;28;20032;-64
2021/05/11 15:42:34;;;;;;;1.33;1.23;;;14.20;85.60;;;;;;5067546;28;20539;-67
2021/05/11 15:45:02;;;;;;;1.58;0.93;;;14.20;85.60;;;;;;5067392;28;20035;-64
2021/05/11 15:47:30;;;;;;;2.35;1.20;;;14.20;86.20;;;;;;5066982;28;20032;-66
2021/05/11 15:49:57;;;;;;;4.80;1.67;;;14.20;86.00;;;;;;5065710;28;20078;-65
2021/05/11 15:52:25;;;;;;;1.25;0.98;;;14.20;85.10;;;;;;5067418;28;20021;-64
2021/05/11 15:54:52;;;;;;;3.60;1.27;;;14.20;85.10;;;;;;5067475;28;20536;-69
2021/05/11 15:57:19;;;;;;;2.08;1.13;;;14.20;85.10;;;;;;5067686;28;20024;-64
2021/05/11 15:59:46;;;;;;;2.70;0.95;;;14.20;84.00;;;;;;5068087;28;20020;-69
2021/05/11 16:02:14;;;;;;;1.02;0.88;;;14.30;83.90;;;;;;5067083;28;20028;-63
2021/05/11 16:04:41;;;;;;;1.63;0.80;;;14.30;82.50;;;;;;5067085;28;20556;-70
2021/05/11 16:07:08;;;;;;;1.35;0.75;;;14.30;82.30;;;;;;5067174;28;20017;-69
2021/05/11 16:09:36;;;;;;;1.58;0.85;;;14.30;82.60;;;;;;5066816;28;20126;-70
2021/05/11 16:12:03;;;;;;;2.15;0.80;;;14.20;82.70;;;;;;5066096;28;20025;-64
2021/05/11 16:14:30;;;;;;;1.10;0.70;;;14.20;82.80;;;;;;5066528;28;20028;-65
2021/05/11 16:16:57;;;;;;;1.77;1.05;;;14.10;82.80;;;;;;5064060;28;20032;-64
2021/05/11 16:19:25;;;;;;;2.35;1.08;;;14.10;82.40;;;;;;5067035;28;20035;-64
2021/05/11 16:21:52;;;;;;;2.72;1.10;;;14.10;82.60;;;;;;5066316;28;20270;-70
2021/05/11 16:24:19;;;;;;;1.70;1.08;;;14.10;82.80;;;;;;5066832;28;20036;-65
2021/05/11 16:26:46;;;;;;;2.30;0.90;;;14.00;83.10;;;;;;5065051;28;20056;-64
2021/05/11 16:29:14;;;;;;;4.07;1.15;;;14.00;82.80;;;;;;5067218;28;20024;-69
2021/05/11 16:31:41;;;;;;;2.78;0.90;;;13.90;82.90;;;;;;5066605;28;20025;-70
2021/05/11 16:34:08;;;;;;;0.93;0.80;;;13.90;83.10;;;;;;5066593;28;20020;-69
2021/05/11 16:36:36;;;;;;;1.95;0.90;;;13.90;82.50;;;;;;5066480;28;20085;-72
2021/05/11 16:39:04;;;;;;;3.63;0.73;;;14.00;81.80;;;;;;5066977;28;20066;-64
2021/05/11 16:41:31;;;;;;;1.67;0.80;;;14.00;81.00;;;;;;5067104;28;20016;-65
2021/05/11 16:43:58;;;;;;;1.50;0.75;;;14.10;81.20;;;;;;5064293;28;20469;-69
2021/05/11 16:46:26;;;;;;;2.00;0.70;;;14.10;80.90;;;;;;5066888;28;20584;-70
2021/05/11 16:48:53;;;;;;;2.78;0.95;;;14.10;80.90;;;;;;5066852;28;20477;-65
2021/05/11 16:51:20;;;;;;;0.98;0.70;;;14.10;81.20;;;;;;5067157;28;20024;-69
2021/05/11 16:53:47;;;;;;;1.77;0.80;;;14.10;80.70;;;;;;5066974;28;20024;-64
2021/05/11 16:56:15;;;;;;;1.63;0.80;;;14.00;81.20;;;;;;5067113;28;20032;-64
2021/05/11 16:58:42;;;;;;;1.42;0.80;;;14.10;81.00;;;;;;5066796;28;20074;-70
2021/05/11 17:01:10;;;;;;;1.48;0.80;;;14.10;80.80;;;;;;5066367;28;20134;-70
2021/05/11 17:03:37;;;;;;;1.33;0.70;;;14.10;80.20;;;;;;5065483;28;20055;-70
2021/05/11 17:06:05;;;;;;;1.67;1.02;;;14.10;80.30;;;;;;5066217;28;20078;-65
2021/05/11 17:08:32;;;;;;;1.70;0.77;;;14.00;80.50;;;;;;5066366;28;20089;-65
2021/05/11 17:11:00;;;;;;;1.25;0.70;;;14.00;80.60;;;;;;5066914;28;20047;-71
2021/05/11 17:13:27;;;;;;;0.82;0.70;;;13.90;81.10;;;;;;5066178;28;20032;-65
2021/05/11 17:15:55;;;;;;;0.60;0.60;;;13.80;81.90;;;;;;5065801;28;20036;-64
2021/05/11 17:18:23;;;;;;;1.10;0.68;;;13.70;81.60;;;;;;5064100;28;20596;-69
2021/05/11 17:20:50;;;;;;;2.05;0.73;;;13.70;81.20;;;;;;5066709;28;20070;-64
2021/05/11 17:23:18;;;;;;;2.03;0.60;;;13.70;81.80;;;;;;5063404;28;20041;-71
2021/05/11 17:25:47;;;;;;;1.58;0.70;;;13.70;81.80;;;;;;5066534;28;20031;-64
2021/05/11 17:28:14;;;;;;;1.45;0.70;;;13.70;82.30;;;;;;5063936;28;20046;-66
2021/05/11 17:30:42;;;;;;;1.23;0.95;;;13.70;83.10;;;;;;5066604;28;20028;-69
2021/05/11 17:33:10;;;;;;;0.60;0.55;;;13.60;82.50;;;;;;5066887;28;20038;-66